sensor_id;sensor_type;location;lat;lon;timestamp;pressure;altitude;pressure_sealevel;temperature
15709;BMP180;7954;51.914;8.420;2022-09-09T00:00:53;99572.00;;;23.54
15709;BMP180;7954;51.914;8.420;2022-09-09T00:03:26;99564.72;;;23.50
15709;BMP180;7954;51.914;8.420;2022-09-09T00:05:59;99562.00;;;23.49
15709;BMP180;7954;51.914;8.420;2022-09-09T00:08:38;99565.31;;;23.48
15709;BMP180;7954;51.914;8.420;2022-09-09T00:11:12;99560.16;;;23.48
15709;BMP180;7954;51.914;8.420;2022-09-09T00:13:46;99556.84;;;23.49
15709;BMP180;7954;51.914;8.420;2022-09-09T00:16:19;99565.66;;;23.51
15709;BMP180;7954;51.914;8.420;2022-09-09T00:18:58;99561.69;;;23.54
15709;BMP180;7954;51.914;8.420;2022-09-09T00:21:33;99558.81;;;23.51
15709;BMP180;7954;51.914;8.420;2022-09-09T00:24:09;99554.56;;;23.52
15709;BMP180;7954;51.914;8.420;2022-09-09T00:26:42;99568.38;;;23.52
15709;BMP180;7954;51.914;8.420;2022-09-09T00:29:20;99575.63;;;23.48
15709;BMP180;7954;51.914;8.420;2022-09-09T00:31:54;99575.63;;;23.48
15709;BMP180;7954;51.914;8.420;2022-09-09T00:34:27;99576.81;;;23.43
15709;BMP180;7954;51.914;8.420;2022-09-09T00:36:56;99574.22;;;23.34
15709;BMP180;7954;51.914;8.420;2022-09-09T00:39:34;99581.34;;;23.29
15709;BMP180;7954;51.914;8.420;2022-09-09T00:42:15;99574.34;;;23.28
15709;BMP180;7954;51.914;8.420;2022-09-09T00:44:52;99568.63;;;23.30
15709;BMP180;7954;51.914;8.420;2022-09-09T00:47:35;99559.50;;;23.25
15709;BMP180;7954;51.914;8.420;2022-09-09T00:50:22;99555.28;;;23.34
15709;BMP180;7954;51.914;8.420;2022-09-09T00:53:02;99567.59;;;23.45
15709;BMP180;7954;51.914;8.420;2022-09-09T00:55:39;99559.13;;;23.46
15709;BMP180;7954;51.914;8.420;2022-09-09T00:58:10;99556.84;;;23.49
15709;BMP180;7954;51.914;8.420;2022-09-09T01:00:42;99553.50;;;23.50
15709;BMP180;7954;51.914;8.420;2022-09-09T01:03:19;99563.66;;;23.57
15709;BMP180;7954;51.914;8.420;2022-09-09T01:06:00;99561.88;;;23.56
15709;BMP180;7954;51.914;8.420;2022-09-09T01:08:42;99565.81;;;23.61
15709;BMP180;7954;51.914;8.420;2022-09-09T01:11:20;99563.25;;;23.61
15709;BMP180;7954;51.914;8.420;2022-09-09T01:13:53;99563.53;;;23.64
15709;BMP180;7954;51.914;8.420;2022-09-09T01:16:26;99555.31;;;23.59
15709;BMP180;7954;51.914;8.420;2022-09-09T01:18:57;99556.72;;;23.56
15709;BMP180;7954;51.914;8.420;2022-09-09T01:21:35;99551.25;;;23.61
15709;BMP180;7954;51.914;8.420;2022-09-09T01:24:20;99561.72;;;23.63
15709;BMP180;7954;51.914;8.420;2022-09-09T01:26:52;99558.84;;;23.60
15709;BMP180;7954;51.914;8.420;2022-09-09T01:29:22;99566.25;;;23.57
15709;BMP180;7954;51.914;8.420;2022-09-09T01:31:53;99566.09;;;23.55
15709;BMP180;7954;51.914;8.420;2022-09-09T01:34:25;99555.94;;;23.57
15709;BMP180;7954;51.914;8.420;2022-09-09T01:36:57;99552.94;;;23.61
15709;BMP180;7954;51.914;8.420;2022-09-09T01:39:27;99559.28;;;23.56
15709;BMP180;7954;51.914;8.420;2022-09-09T01:41:56;99558.81;;;23.51
15709;BMP180;7954;51.914;8.420;2022-09-09T01:44:25;99557.47;;;23.55
15709;BMP180;7954;51.914;8.420;2022-09-09T01:46:54;99552.31;;;23.55
15709;BMP180;7954;51.914;8.420;2022-09-09T01:49:22;99563.19;;;23.44
15709;BMP180;7954;51.914;8.420;2022-09-09T01:51:52;99552.59;;;23.41
15709;BMP180;7954;51.914;8.420;2022-09-09T01:54:24;99552.59;;;23.41
15709;BMP180;7954;51.914;8.420;2022-09-09T01:57:01;99552.13;;;23.45
15709;BMP180;7954;51.914;8.420;2022-09-09T01:59:45;99559.25;;;23.47
15709;BMP180;7954;51.914;8.420;2022-09-09T02:02:18;99553.34;;;23.48
15709;BMP180;7954;51.914;8.420;2022-09-09T02:04:48;99551.38;;;23.46
15709;BMP180;7954;51.914;8.420;2022-09-09T02:07:30;99555.00;;;23.48
15709;BMP180;7954;51.914;8.420;2022-09-09T02:10:06;99558.66;;;23.50
15709;BMP180;7954;51.914;8.420;2022-09-09T02:12:40;99546.81;;;23.52
15709;BMP180;7954;51.914;8.420;2022-09-09T02:15:14;99543.50;;;23.53
15709;BMP180;7954;51.914;8.420;2022-09-09T02:17:46;99543.97;;;23.57
15709;BMP180;7954;51.914;8.420;2022-09-09T02:20:14;99542.00;;;23.55
15709;BMP180;7954;51.914;8.420;2022-09-09T02:22:45;99549.28;;;23.59
15709;BMP180;7954;51.914;8.420;2022-09-09T02:25:18;99548.81;;;23.63
15709;BMP180;7954;51.914;8.420;2022-09-09T02:27:50;99550.66;;;23.64
15709;BMP180;7954;51.914;8.420;2022-09-09T02:30:19;99542.91;;;23.64
15709;BMP180;7954;51.914;8.420;2022-09-09T02:32:50;99549.91;;;23.65
15709;BMP180;7954;51.914;8.420;2022-09-09T02:35:22;99558.84;;;23.68
15709;BMP180;7954;51.914;8.420;2022-09-09T02:37:54;99557.19;;;23.69
15709;BMP180;7954;51.914;8.420;2022-09-09T02:40:25;99559.59;;;23.67
15709;BMP180;7954;51.914;8.420;2022-09-09T02:42:55;99556.09;;;23.67
15709;BMP180;7954;51.914;8.420;2022-09-09T02:45:27;99557.19;;;23.69
15709;BMP180;7954;51.914;8.420;2022-09-09T02:48:02;99554.31;;;23.66
15709;BMP180;7954;51.914;8.420;2022-09-09T02:50:34;99557.78;;;23.66
15709;BMP180;7954;51.914;8.420;2022-09-09T02:53:07;99557.63;;;23.65
15709;BMP180;7954;51.914;8.420;2022-09-09T02:55:42;99556.88;;;23.66
15709;BMP180;7954;51.914;8.420;2022-09-09T02:58:16;99563.53;;;23.64
15709;BMP180;7954;51.914;8.420;2022-09-09T03:00:47;99565.97;;;23.62
15709;BMP180;7954;51.914;8.420;2022-09-09T03:03:16;99564.00;;;23.60
15709;BMP180;7954;51.914;8.420;2022-09-09T03:05:46;99557.47;;;23.63
15709;BMP180;7954;51.914;8.420;2022-09-09T03:08:14;99562.78;;;23.65
15709;BMP180;7954;51.914;8.420;2022-09-09T03:10:44;99569.44;;;23.63
15709;BMP180;7954;51.914;8.420;2022-09-09T03:13:13;99565.97;;;23.62
15709;BMP180;7954;51.914;8.420;2022-09-09T03:15:42;99567.63;;;23.62
15709;BMP180;7954;51.914;8.420;2022-09-09T03:18:10;99570.03;;;23.60
15709;BMP180;7954;51.914;8.420;2022-09-09T03:20:37;99566.25;;;23.57
15709;BMP180;7954;51.914;8.420;2022-09-09T03:23:05;99574.91;;;23.57
15709;BMP180;7954;51.914;8.420;2022-09-09T03:25:39;99566.25;;;23.57
15709;BMP180;7954;51.914;8.420;2022-09-09T03:28:06;99570.66;;;23.58
15709;BMP180;7954;51.914;8.420;2022-09-09T03:30:36;99573.81;;;23.55
15709;BMP180;7954;51.914;8.420;2022-09-09T03:33:05;99572.78;;;23.53
15709;BMP180;7954;51.914;8.420;2022-09-09T03:35:33;99559.41;;;23.49
15709;BMP180;7954;51.914;8.420;2022-09-09T03:38:01;99563.50;;;23.47
15709;BMP180;7954;51.914;8.420;2022-09-09T03:40:30;99558.47;;;23.40
15709;BMP180;7954;51.914;8.420;2022-09-09T03:42:58;99559.53;;;23.33
15709;BMP180;7954;51.914;8.420;2022-09-09T03:45:26;99562.84;;;23.32
15709;BMP180;7954;51.914;8.420;2022-09-09T03:47:57;99552.81;;;23.27
15709;BMP180;7954;51.914;8.420;2022-09-09T03:50:25;99555.41;;;23.27
15709;BMP180;7954;51.914;8.420;2022-09-09T03:52:53;99549.81;;;23.31
15709;BMP180;7954;51.914;8.420;2022-09-09T03:55:21;99546.91;;;23.28
15709;BMP180;7954;51.914;8.420;2022-09-09T03:57:49;99548.00;;;23.30
15709;BMP180;7954;51.914;8.420;2022-09-09T04:00:17;99549.22;;;23.33
15709;BMP180;7954;51.914;8.420;2022-09-09T04:02:46;99551.94;;;23.35
15709;BMP180;7954;51.914;8.420;2022-09-09T04:05:17;99549.97;;;23.32
15709;BMP180;7954;51.914;8.420;2022-09-09T04:07:45;99556.78;;;23.32
15709;BMP180;7954;51.914;8.420;2022-09-09T04:10:13;99557.56;;;23.31
15709;BMP180;7954;51.914;8.420;2022-09-09T04:12:42;99581.84;;;23.09
15709;BMP180;7954;51.914;8.420;2022-09-09T04:15:15;99582.50;;;22.67
15709;BMP180;7954;51.914;8.420;2022-09-09T04:17:44;99580.06;;;22.61
15709;BMP180;7954;51.914;8.420;2022-09-09T04:20:12;99578.69;;;22.64
15709;BMP180;7954;51.914;8.420;2022-09-09T04:22:42;99574.94;;;22.69
15709;BMP180;7954;51.914;8.420;2022-09-09T04:25:10;99566.66;;;22.80
15709;BMP180;7954;51.914;8.420;2022-09-09T04:27:38;99571.44;;;22.92
15709;BMP180;7954;51.914;8.420;2022-09-09T04:30:07;99565.47;;;23.00
15709;BMP180;7954;51.914;8.420;2022-09-09T04:32:35;99571.84;;;23.04
15709;BMP180;7954;51.914;8.420;2022-09-09T04:35:03;99567.28;;;23.10
15709;BMP180;7954;51.914;8.420;2022-09-09T04:37:31;99567.91;;;23.07
15709;BMP180;7954;51.914;8.420;2022-09-09T04:40:01;99566.41;;;23.09
15709;BMP180;7954;51.914;8.420;2022-09-09T04:42:29;99569.88;;;23.10
15709;BMP180;7954;51.914;8.420;2022-09-09T04:44:57;99562.78;;;23.16
15709;BMP180;7954;51.914;8.420;2022-09-09T04:47:25;99567.34;;;23.18
15709;BMP180;7954;51.914;8.420;2022-09-09T04:49:53;99574.63;;;23.14
15709;BMP180;7954;51.914;8.420;2022-09-09T04:52:21;99577.19;;;23.14
15709;BMP180;7954;51.914;8.420;2022-09-09T04:54:48;99574.44;;;23.12
15709;BMP180;7954;51.914;8.420;2022-09-09T04:57:18;99584.91;;;23.14
15709;BMP180;7954;51.914;8.420;2022-09-09T04:59:45;99576.84;;;23.11
15709;BMP180;7954;51.914;8.420;2022-09-09T05:02:14;99581.25;;;23.12
15709;BMP180;7954;51.914;8.420;2022-09-09T05:04:43;99576.41;;;23.15
15709;BMP180;7954;51.914;8.420;2022-09-09T05:07:11;99577.66;;;23.18
15709;BMP180;7954;51.914;8.420;2022-09-09T05:09:41;99584.78;;;23.21
15709;BMP180;7954;51.914;8.420;2022-09-09T05:12:09;99577.06;;;23.21
15709;BMP180;7954;51.914;8.420;2022-09-09T05:14:39;99582.34;;;23.22
15709;BMP180;7954;51.914;8.420;2022-09-09T05:17:08;99587.84;;;23.25
15709;BMP180;7954;51.914;8.420;2022-09-09T05:19:36;99588.75;;;23.26
15709;BMP180;7954;51.914;8.420;2022-09-09T05:22:05;99587.84;;;23.25
15709;BMP180;7954;51.914;8.420;2022-09-09T05:24:33;99600.72;;;23.25
15709;BMP180;7954;51.914;8.420;2022-09-09T05:27:03;99595.13;;;23.29
15709;BMP180;7954;51.914;8.420;2022-09-09T05:29:32;99591.66;;;23.29
15709;BMP180;7954;51.914;8.420;2022-09-09T05:32:03;99592.25;;;23.34
15709;BMP180;7954;51.914;8.420;2022-09-09T05:34:31;99584.72;;;23.36
15709;BMP180;7954;51.914;8.420;2022-09-09T05:36:59;99584.41;;;23.41
15709;BMP180;7954;51.914;8.420;2022-09-09T05:39:27;99592.28;;;23.43
15709;BMP180;7954;51.914;8.420;2022-09-09T05:41:55;99586.38;;;23.44
15709;BMP180;7954;51.914;8.420;2022-09-09T05:44:23;99588.38;;;23.46
15709;BMP180;7954;51.914;8.420;2022-09-09T05:46:53;99588.84;;;23.51
15709;BMP180;7954;51.914;8.420;2022-09-09T05:49:23;99589.75;;;23.51
15709;BMP180;7954;51.914;8.420;2022-09-09T05:51:51;99591.13;;;23.56
15709;BMP180;7954;51.914;8.420;2022-09-09T05:54:20;99589.19;;;23.62
15709;BMP180;7954;51.914;8.420;2022-09-09T05:56:50;99591.44;;;23.68
15709;BMP180;7954;51.914;8.420;2022-09-09T05:59:20;99591.81;;;23.71
15709;BMP180;7954;51.914;8.420;2022-09-09T06:01:49;99591.59;;;23.69
15709;BMP180;7954;51.914;8.420;2022-09-09T06:04:17;99589.38;;;23.72
15709;BMP180;7954;51.914;8.420;2022-09-09T06:06:49;99595.91;;;23.77
15709;BMP180;7954;51.914;8.420;2022-09-09T06:09:17;99590.31;;;23.81
15709;BMP180;7954;51.914;8.420;2022-09-09T06:11:45;99587.41;;;23.87
15709;BMP180;7954;51.914;8.420;2022-09-09T06:14:13;99586.81;;;23.89
15709;BMP180;7954;51.914;8.420;2022-09-09T06:16:41;99588.38;;;23.96
15709;BMP180;7954;51.914;8.420;2022-09-09T06:19:11;99592.75;;;24.05
15709;BMP180;7954;51.914;8.420;2022-09-09T06:21:39;99593.97;;;24.17
15709;BMP180;7954;51.914;8.420;2022-09-09T06:24:10;99598.81;;;24.14
15709;BMP180;7954;51.914;8.420;2022-09-09T06:26:40;99585.19;;;24.23
15709;BMP180;7954;51.914;8.420;2022-09-09T06:29:08;99590.34;;;24.32
15709;BMP180;7954;51.914;8.420;2022-09-09T06:31:37;99582.28;;;24.37
15709;BMP180;7954;51.914;8.420;2022-09-09T06:34:06;99578.22;;;24.39
15709;BMP180;7954;51.914;8.420;2022-09-09T06:36:36;99575.19;;;24.43
15709;BMP180;7954;51.914;8.420;2022-09-09T06:39:05;99580.34;;;24.43
15709;BMP180;7954;51.914;8.420;2022-09-09T06:41:41;99584.28;;;24.48
15709;BMP180;7954;51.914;8.420;2022-09-09T06:44:10;99586.13;;;24.49
15709;BMP180;7954;51.914;8.420;2022-09-09T06:46:39;99588.84;;;24.51
15709;BMP180;7954;51.914;8.420;2022-09-09T06:49:07;99588.22;;;24.53
15709;BMP180;7954;51.914;8.420;2022-09-09T06:51:36;99593.38;;;24.53
15709;BMP180;7954;51.914;8.420;2022-09-09T06:54:10;99589.31;;;24.55
15709;BMP180;7954;51.914;8.420;2022-09-09T06:56:41;99591.88;;;24.55
15709;BMP180;7954;51.914;8.420;2022-09-09T06:59:10;99592.03;;;24.57
15709;BMP180;7954;51.914;8.420;2022-09-09T07:01:40;99594.47;;;24.55
15709;BMP180;7954;51.914;8.420;2022-09-09T07:04:11;99599.78;;;24.48
15709;BMP180;7954;51.914;8.420;2022-09-09T07:06:41;99601.13;;;24.53
15709;BMP180;7954;51.914;8.420;2022-09-09T07:09:11;99603.44;;;24.50
15709;BMP180;7954;51.914;8.420;2022-09-09T07:11:42;99602.22;;;24.55
15709;BMP180;7954;51.914;8.420;2022-09-09T07:14:11;99602.03;;;24.62
15709;BMP180;7954;51.914;8.420;2022-09-09T07:16:41;99607.94;;;24.69
15709;BMP180;7954;51.914;8.420;2022-09-09T07:19:09;99598.81;;;24.73
15709;BMP180;7954;51.914;8.420;2022-09-09T07:21:38;99598.34;;;24.77
15709;BMP180;7954;51.914;8.420;2022-09-09T07:24:06;99594.88;;;24.85
15709;BMP180;7954;51.914;8.420;2022-09-09T07:26:37;99597.44;;;24.85
15709;BMP180;7954;51.914;8.420;2022-09-09T07:29:08;99600.16;;;24.95
15709;BMP180;7954;51.914;8.420;2022-09-09T07:31:38;99596.03;;;24.97
15709;BMP180;7954;51.914;8.420;2022-09-09T07:34:07;99603.63;;;24.95
15709;BMP180;7954;51.914;8.420;2022-09-09T07:36:36;99602.41;;;25.09
15709;BMP180;7954;51.914;8.420;2022-09-09T07:39:05;99599.34;;;25.13
15709;BMP180;7954;51.914;8.420;2022-09-09T07:41:36;99593.53;;;25.24
15709;BMP180;7954;51.914;8.420;2022-09-09T07:44:07;99589.41;;;25.26
15709;BMP180;7954;51.914;8.420;2022-09-09T07:46:38;99595.91;;;25.39
15709;BMP180;7954;51.914;8.420;2022-09-09T07:49:08;99592.38;;;25.47
15709;BMP180;7954;51.914;8.420;2022-09-09T07:51:38;99584.72;;;25.57
15709;BMP180;7954;51.914;8.420;2022-09-09T07:54:09;99593.47;;;25.67
15709;BMP180;7954;51.914;8.420;2022-09-09T07:56:38;99598.78;;;25.77
15709;BMP180;7954;51.914;8.420;2022-09-09T07:59:08;99588.88;;;25.82
15709;BMP180;7954;51.914;8.420;2022-09-09T08:01:39;99596.84;;;25.93
15709;BMP180;7954;51.914;8.420;2022-09-09T08:04:09;99592.88;;;25.96
15709;BMP180;7954;51.914;8.420;2022-09-09T08:06:43;99583.72;;;26.00
15709;BMP180;7954;51.914;8.420;2022-09-09T08:09:13;99587.47;;;26.03
15709;BMP180;7954;51.914;8.420;2022-09-09T08:11:42;99588.16;;;26.11
15709;BMP180;7954;51.914;8.420;2022-09-09T08:14:13;99585.94;;;26.05
15709;BMP180;7954;51.914;8.420;2022-09-09T08:16:43;99591.19;;;26.15
15709;BMP180;7954;51.914;8.420;2022-09-09T08:19:12;99586.59;;;26.21
15709;BMP180;7954;51.914;8.420;2022-09-09T08:21:43;99585.69;;;26.39
15709;BMP180;7954;51.914;8.420;2022-09-09T08:24:11;99593.91;;;26.44
15709;BMP180;7954;51.914;8.420;2022-09-09T08:26:43;99581.75;;;26.53
15709;BMP180;7954;51.914;8.420;2022-09-09T08:29:13;99599.34;;;26.47
15709;BMP180;7954;51.914;8.420;2022-09-09T08:31:42;99591.19;;;26.34
15709;BMP180;7954;51.914;8.420;2022-09-09T08:34:10;99592.56;;;26.39
15709;BMP180;7954;51.914;8.420;2022-09-09T08:36:42;99594.84;;;26.36
15709;BMP180;7954;51.914;8.420;2022-09-09T08:39:11;99602.50;;;26.53
15709;BMP180;7954;51.914;8.420;2022-09-09T08:41:52;99595.97;;;26.66
15709;BMP180;7954;51.914;8.420;2022-09-09T08:44:32;99599.50;;;26.76
15709;BMP180;7954;51.914;8.420;2022-09-09T08:47:11;99603.69;;;26.84
15709;BMP180;7954;51.914;8.420;2022-09-09T08:49:54;99592.34;;;27.21
15709;BMP180;7954;51.914;8.420;2022-09-09T08:52:28;99595.13;;;27.04
15709;BMP180;7954;51.914;8.420;2022-09-09T08:54:58;99602.84;;;26.75
15709;BMP180;7954;51.914;8.420;2022-09-09T08:57:30;99616.75;;;26.76
15709;BMP180;7954;51.914;8.420;2022-09-09T09:00:01;99612.41;;;26.30
15709;BMP180;7954;51.914;8.420;2022-09-09T09:02:36;99614.72;;;26.27
15709;BMP180;7954;51.914;8.420;2022-09-09T09:05:15;99620.28;;;26.40
15709;BMP180;7954;51.914;8.420;2022-09-09T09:07:56;99615.63;;;26.46
15709;BMP180;7954;51.914;8.420;2022-09-09T09:10:36;99624.53;;;26.39
15709;BMP180;7954;51.914;8.420;2022-09-09T09:13:13;99624.28;;;26.36
15709;BMP180;7954;51.914;8.420;2022-09-09T09:15:44;99628.56;;;26.09
15709;BMP180;7954;51.914;8.420;2022-09-09T09:18:16;99628.25;;;26.06
15709;BMP180;7954;51.914;8.420;2022-09-09T09:20:51;99618.91;;;26.16
15709;BMP180;7954;51.914;8.420;2022-09-09T09:23:23;99620.28;;;26.40
15709;BMP180;7954;51.914;8.420;2022-09-09T09:25:55;99621.13;;;26.49
15709;BMP180;7954;51.914;8.420;2022-09-09T09:28:26;99600.63;;;26.70
15709;BMP180;7954;51.914;8.420;2022-09-09T09:30:59;99603.59;;;26.93
15709;BMP180;7954;51.914;8.420;2022-09-09T09:33:34;99607.69;;;26.81
15709;BMP180;7954;51.914;8.420;2022-09-09T09:36:04;99602.13;;;26.86
15709;BMP180;7954;51.914;8.420;2022-09-09T09:38:36;99600.88;;;26.91
15709;BMP180;7954;51.914;8.420;2022-09-09T09:41:35;99586.06;;;27.09
15709;BMP180;7954;51.914;8.420;2022-09-09T09:44:05;99589.72;;;27.11
15709;BMP180;7954;51.914;8.420;2022-09-09T09:46:35;99592.81;;;27.07
15709;BMP180;7954;51.914;8.420;2022-09-09T09:49:05;99585.53;;;27.13
15709;BMP180;7954;51.914;8.420;2022-09-09T09:51:36;99585.03;;;27.07
15709;BMP180;7954;51.914;8.420;2022-09-09T09:54:09;99592.56;;;26.95
15709;BMP180;7954;51.914;8.420;2022-09-09T09:56:42;99585.13;;;26.98
15709;BMP180;7954;51.914;8.420;2022-09-09T09:59:21;99590.06;;;27.05
15709;BMP180;7954;51.914;8.420;2022-09-09T10:02:18;99598.50;;;27.13
15709;BMP180;7954;51.914;8.420;2022-09-09T10:04:47;99587.84;;;27.00
15709;BMP180;7954;51.914;8.420;2022-09-09T10:07:18;99593.94;;;27.48
15709;BMP180;7954;51.914;8.420;2022-09-09T10:09:50;99600.13;;;27.59
15709;BMP180;7954;51.914;8.420;2022-09-09T10:12:30;99604.19;;;27.47
15709;BMP180;7954;51.914;8.420;2022-09-09T10:15:05;99595.25;;;27.53
15709;BMP180;7954;51.914;8.420;2022-09-09T10:17:43;99596.94;;;27.43
15709;BMP180;7954;51.914;8.420;2022-09-09T10:20:22;99600.13;;;27.59
15709;BMP180;7954;51.914;8.420;2022-09-09T10:23:02;99594.66;;;27.86
15709;BMP180;7954;51.914;8.420;2022-09-09T10:25:49;99598.31;;;27.68
15709;BMP180;7954;51.914;8.420;2022-09-09T10:28:33;99593.94;;;27.48
15709;BMP180;7954;51.914;8.420;2022-09-09T10:31:11;99608.06;;;27.42
15709;BMP180;7954;51.914;8.420;2022-09-09T10:33:50;99609.63;;;27.40
15709;BMP180;7954;51.914;8.420;2022-09-09T10:36:20;99600.44;;;27.53
15709;BMP180;7954;51.914;8.420;2022-09-09T10:38:53;99599.19;;;27.68
15709;BMP180;7954;51.914;8.420;2022-09-09T10:41:39;99592.34;;;27.69
15709;BMP180;7954;51.914;8.420;2022-09-09T10:44:29;99585.22;;;27.76
15709;BMP180;7954;51.914;8.420;2022-09-09T10:47:13;99582.50;;;28.04
15709;BMP180;7954;51.914;8.420;2022-09-09T10:50:12;99568.19;;;28.09
15709;BMP180;7954;51.914;8.420;2022-09-09T10:52:46;99572.09;;;28.04
15709;BMP180;7954;51.914;8.420;2022-09-09T10:55:18;99579.38;;;27.98
15709;BMP180;7954;51.914;8.420;2022-09-09T10:57:53;99565.34;;;27.77
15709;BMP180;7954;51.914;8.420;2022-09-09T11:00:24;99571.19;;;27.64
15709;BMP180;7954;51.914;8.420;2022-09-09T11:02:57;99573.31;;;27.50
15709;BMP180;7954;51.914;8.420;2022-09-09T11:05:31;99573.31;;;27.40
15709;BMP180;7954;51.914;8.420;2022-09-09T11:08:04;99575.00;;;27.49
15709;BMP180;7954;51.914;8.420;2022-09-09T11:10:39;99571.81;;;27.62
15709;BMP180;7954;51.914;8.420;2022-09-09T11:13:11;99574.03;;;27.67
15709;BMP180;7954;51.914;8.420;2022-09-09T11:15:45;99561.84;;;27.76
15709;BMP180;7954;51.914;8.420;2022-09-09T11:18:19;99552.59;;;27.90
15709;BMP180;7954;51.914;8.420;2022-09-09T11:20:57;99559.38;;;27.88
15709;BMP180;7954;51.914;8.420;2022-09-09T11:23:33;99556.22;;;28.11
15709;BMP180;7954;51.914;8.420;2022-09-09T11:26:13;99552.13;;;27.93
15709;BMP180;7954;51.914;8.420;2022-09-09T11:28:54;99558.84;;;28.01
15709;BMP180;7954;51.914;8.420;2022-09-09T11:31:44;99561.31;;;27.80
15709;BMP180;7954;51.914;8.420;2022-09-09T11:34:21;99559.50;;;27.79
15709;BMP180;7954;51.914;8.420;2022-09-09T11:37:10;99548.88;;;27.96
15709;BMP180;7954;51.914;8.420;2022-09-09T11:42:34;99557.81;;;28.29
15709;BMP180;7954;51.914;8.420;2022-09-09T11:45:21;99560.88;;;28.45
15709;BMP180;7954;51.914;8.420;2022-09-09T11:47:54;99565.78;;;28.62
15709;BMP180;7954;51.914;8.420;2022-09-09T11:50:34;99560.31;;;28.79
15709;BMP180;7954;51.914;8.420;2022-09-09T11:53:19;99552.34;;;28.77
15709;BMP180;7954;51.914;8.420;2022-09-09T11:56:04;99555.47;;;29.05
15709;BMP180;7954;51.914;8.420;2022-09-09T11:58:44;99549.03;;;28.90
15709;BMP180;7954;51.914;8.420;2022-09-09T12:01:30;99537.09;;;28.92
15709;BMP180;7954;51.914;8.420;2022-09-09T12:04:16;99541.63;;;28.94
15709;BMP180;7954;51.914;8.420;2022-09-09T12:06:51;99549.44;;;29.16
15709;BMP180;7954;51.914;8.420;2022-09-09T12:12:25;99547.84;;;29.49
15709;BMP180;7954;51.914;8.420;2022-09-09T12:17:42;99528.53;;;29.35
15709;BMP180;7954;51.914;8.420;2022-09-09T12:20:14;99532.75;;;29.24
15709;BMP180;7954;51.914;8.420;2022-09-09T12:23:07;99535.44;;;29.35
15709;BMP180;7954;51.914;8.420;2022-09-09T12:25:49;99528.91;;;29.40
15709;BMP180;7954;51.914;8.420;2022-09-09T12:28:27;99527.53;;;29.66
15709;BMP180;7954;51.914;8.420;2022-09-09T12:31:02;99525.47;;;29.62
15709;BMP180;7954;51.914;8.420;2022-09-09T12:33:35;99523.09;;;29.65
15709;BMP180;7954;51.914;8.420;2022-09-09T12:36:04;99520.03;;;29.92
15709;BMP180;7954;51.914;8.420;2022-09-09T12:38:37;99515.41;;;30.11
15709;BMP180;7954;51.914;8.420;2022-09-09T12:41:06;99508.44;;;30.56
15709;BMP180;7954;51.914;8.420;2022-09-09T12:43:35;99500.03;;;30.59
15709;BMP180;7954;51.914;8.420;2022-09-09T12:46:08;99505.94;;;30.57
15709;BMP180;7954;51.914;8.420;2022-09-09T12:48:40;99509.16;;;30.09
15709;BMP180;7954;51.914;8.420;2022-09-09T12:51:18;99515.41;;;29.88
15709;BMP180;7954;51.914;8.420;2022-09-09T12:53:46;99521.59;;;29.57
15709;BMP180;7954;51.914;8.420;2022-09-09T12:56:19;99528.88;;;29.73
15709;BMP180;7954;51.914;8.420;2022-09-09T12:58:52;99523.69;;;29.84
15709;BMP180;7954;51.914;8.420;2022-09-09T13:01:22;99523.09;;;29.65
15709;BMP180;7954;51.914;8.420;2022-09-09T13:03:51;99530.28;;;29.25
15709;BMP180;7954;51.914;8.420;2022-09-09T13:06:22;99524.91;;;29.33
15709;BMP180;7954;51.914;8.420;2022-09-09T13:08:56;99537.53;;;29.29
15709;BMP180;7954;51.914;8.420;2022-09-09T13:11:26;99538.53;;;29.10
15709;BMP180;7954;51.914;8.420;2022-09-09T13:13:57;99537.72;;;29.63
15709;BMP180;7954;51.914;8.420;2022-09-09T13:16:27;99530.72;;;30.41
15709;BMP180;7954;51.914;8.420;2022-09-09T13:19:00;99520.53;;;31.01
15709;BMP180;7954;51.914;8.420;2022-09-09T13:21:33;99495.97;;;31.46
15709;BMP180;7954;51.914;8.420;2022-09-09T13:24:01;99492.88;;;31.76
15709;BMP180;7954;51.914;8.420;2022-09-09T13:26:30;99484.31;;;32.28
15709;BMP180;7954;51.914;8.420;2022-09-09T13:29:18;99483.34;;;32.65
15709;BMP180;7954;51.914;8.420;2022-09-09T13:31:47;99488.22;;;32.99
15709;BMP180;7954;51.914;8.420;2022-09-09T13:34:27;99488.84;;;33.08
15709;BMP180;7954;51.914;8.420;2022-09-09T13:36:59;99485.53;;;32.85
15709;BMP180;7954;51.914;8.420;2022-09-09T13:39:29;99485.56;;;33.25
15709;BMP180;7954;51.914;8.420;2022-09-09T13:41:57;99466.13;;;33.49
15709;BMP180;7954;51.914;8.420;2022-09-09T13:44:30;99465.03;;;33.87
15709;BMP180;7954;51.914;8.420;2022-09-09T13:47:01;99483.50;;;34.32
15709;BMP180;7954;51.914;8.420;2022-09-09T13:49:36;99474.38;;;34.11
15709;BMP180;7954;51.914;8.420;2022-09-09T13:52:08;99461.66;;;34.47
15709;BMP180;7954;51.914;8.420;2022-09-09T13:54:36;99459.50;;;34.55
15709;BMP180;7954;51.914;8.420;2022-09-09T13:57:04;99450.84;;;34.71
15709;BMP180;7954;51.914;8.420;2022-09-09T13:59:34;99450.28;;;34.18
15709;BMP180;7954;51.914;8.420;2022-09-09T14:02:21;99446.75;;;33.74
15709;BMP180;7954;51.914;8.420;2022-09-09T14:04:50;99467.72;;;33.32
15709;BMP180;7954;51.914;8.420;2022-09-09T14:07:21;99460.00;;;32.68
15709;BMP180;7954;51.914;8.420;2022-09-09T14:09:49;99460.53;;;32.24
15709;BMP180;7954;51.914;8.420;2022-09-09T14:12:18;99460.22;;;32.06
15709;BMP180;7954;51.914;8.420;2022-09-09T14:14:48;99458.34;;;31.92
15709;BMP180;7954;51.914;8.420;2022-09-09T14:17:16;99464.69;;;31.59
15709;BMP180;7954;51.914;8.420;2022-09-09T14:19:43;99468.03;;;31.45
15709;BMP180;7954;51.914;8.420;2022-09-09T14:22:13;99475.19;;;31.23
15709;BMP180;7954;51.914;8.420;2022-09-09T14:24:41;99470.84;;;30.88
15709;BMP180;7954;51.914;8.420;2022-09-09T14:27:09;99477.34;;;30.70
15709;BMP180;7954;51.914;8.420;2022-09-09T14:29:37;99477.16;;;30.56
15709;BMP180;7954;51.914;8.420;2022-09-09T14:32:07;99470.13;;;30.43
15709;BMP180;7954;51.914;8.420;2022-09-09T14:34:38;99474.28;;;30.18
15709;BMP180;7954;51.914;8.420;2022-09-09T14:37:07;99489.09;;;29.96
15709;BMP180;7954;51.914;8.420;2022-09-09T14:39:34;99481.97;;;29.94
15709;BMP180;7954;51.914;8.420;2022-09-09T14:42:03;99497.06;;;29.98
15709;BMP180;7954;51.914;8.420;2022-09-09T14:44:31;99498.16;;;29.90
15709;BMP180;7954;51.914;8.420;2022-09-09T14:47:00;99495.31;;;29.87
15709;BMP180;7954;51.914;8.420;2022-09-09T14:49:30;99496.34;;;29.89
15709;BMP180;7954;51.914;8.420;2022-09-09T14:51:58;99501.69;;;29.91
15709;BMP180;7954;51.914;8.420;2022-09-09T14:54:26;99500.66;;;30.00
15709;BMP180;7954;51.914;8.420;2022-09-09T14:56:54;99491.44;;;30.49
15709;BMP180;7954;51.914;8.420;2022-09-09T14:59:23;99480.16;;;30.39